sensor_id;sensor_type;location;lat;lon;timestamp;temperature;humidity
56869;DHT22;42754;0.000;0.000;2023-02-08T00:01:43;-0.90;99.90
56869;DHT22;42754;0.000;0.000;2023-02-08T00:04:08;-1.00;99.90
56869;DHT22;42754;0.000;0.000;2023-02-08T00:06:34;-1.00;99.90
56869;DHT22;42754;0.000;0.000;2023-02-08T00:08:59;-1.00;99.90
56869;DHT22;42754;0.000;0.000;2023-02-08T00:11:25;-1.00;99.90
56869;DHT22;42754;0.000;0.000;2023-02-08T00:13:52;-1.00;99.90
56869;DHT22;42754;0.000;0.000;2023-02-08T00:16:18;-1.00;99.90
56869;DHT22;42754;0.000;0.000;2023-02-08T00:18:43;-1.00;99.90
56869;DHT22;42754;0.000;0.000;2023-02-08T00:21:10;-1.00;99.90
56869;DHT22;42754;0.000;0.000;2023-02-08T00:23:36;-1.10;99.90
56869;DHT22;42754;0.000;0.000;2023-02-08T00:26:01;-1.00;99.90
56869;DHT22;42754;0.000;0.000;2023-02-08T00:28:27;-1.10;99.90
56869;DHT22;42754;0.000;0.000;2023-02-08T00:30:54;-1.10;99.90
56869;DHT22;42754;0.000;0.000;2023-02-08T00:33:19;-1.10;99.90
56869;DHT22;42754;0.000;0.000;2023-02-08T00:35:47;-1.10;99.90
56869;DHT22;42754;0.000;0.000;2023-02-08T00:38:12;-1.10;99.90
56869;DHT22;42754;0.000;0.000;2023-02-08T00:40:38;-1.10;99.90
56869;DHT22;42754;0.000;0.000;2023-02-08T00:43:03;-1.10;99.90
56869;DHT22;42754;0.000;0.000;2023-02-08T00:45:30;-1.10;99.90
56869;DHT22;42754;0.000;0.000;2023-02-08T00:47:56;-1.10;99.90
56869;DHT22;42754;0.000;0.000;2023-02-08T00:50:22;-1.10;99.90
56869;DHT22;42754;0.000;0.000;2023-02-08T00:52:47;-1.20;99.90
56869;DHT22;42754;0.000;0.000;2023-02-08T00:55:13;-1.10;99.90
56869;DHT22;42754;0.000;0.000;2023-02-08T00:57:38;-1.20;99.90
56869;DHT22;42754;0.000;0.000;2023-02-08T01:00:05;-1.20;99.90
56869;DHT22;42754;0.000;0.000;2023-02-08T01:02:30;-1.20;99.90
56869;DHT22;42754;0.000;0.000;2023-02-08T01:04:57;-1.30;99.90
56869;DHT22;42754;0.000;0.000;2023-02-08T01:07:23;-1.30;99.90
56869;DHT22;42754;0.000;0.000;2023-02-08T01:09:50;-1.30;99.90
56869;DHT22;42754;0.000;0.000;2023-02-08T01:12:16;-1.30;99.90
56869;DHT22;42754;0.000;0.000;2023-02-08T01:14:41;-1.40;99.90
56869;DHT22;42754;0.000;0.000;2023-02-08T01:17:07;-1.40;99.90
56869;DHT22;42754;0.000;0.000;2023-02-08T01:19:33;-1.40;99.90
56869;DHT22;42754;0.000;0.000;2023-02-08T01:21:58;-1.40;99.90
56869;DHT22;42754;0.000;0.000;2023-02-08T01:24:24;-1.40;99.90
56869;DHT22;42754;0.000;0.000;2023-02-08T01:26:50;-1.40;99.90
56869;DHT22;42754;0.000;0.000;2023-02-08T01:29:16;-1.50;99.90
56869;DHT22;42754;0.000;0.000;2023-02-08T01:31:42;-1.50;99.90
56869;DHT22;42754;0.000;0.000;2023-02-08T01:34:08;-1.40;99.90
56869;DHT22;42754;0.000;0.000;2023-02-08T01:36:35;-1.40;99.90
56869;DHT22;42754;0.000;0.000;2023-02-08T01:39:00;-1.40;99.90
56869;DHT22;42754;0.000;0.000;2023-02-08T01:41:35;-1.30;99.90
56869;DHT22;42754;0.000;0.000;2023-02-08T01:46:39;-1.40;99.90
56869;DHT22;42754;0.000;0.000;2023-02-08T01:49:07;-1.60;99.90
56869;DHT22;42754;0.000;0.000;2023-02-08T01:51:35;-1.50;99.90
56869;DHT22;42754;0.000;0.000;2023-02-08T01:54:02;-1.50;99.90
56869;DHT22;42754;0.000;0.000;2023-02-08T01:56:33;-1.40;99.90
56869;DHT22;42754;0.000;0.000;2023-02-08T01:59:02;-1.50;99.90
56869;DHT22;42754;0.000;0.000;2023-02-08T02:01:29;-1.50;99.90
56869;DHT22;42754;0.000;0.000;2023-02-08T02:03:55;-1.50;99.90
56869;DHT22;42754;0.000;0.000;2023-02-08T02:06:23;-1.60;99.90
56869;DHT22;42754;0.000;0.000;2023-02-08T02:08:59;-1.60;99.90
56869;DHT22;42754;0.000;0.000;2023-02-08T02:11:26;-1.70;99.90
56869;DHT22;42754;0.000;0.000;2023-02-08T02:13:52;-1.70;99.90
56869;DHT22;42754;0.000;0.000;2023-02-08T02:16:19;-1.80;99.90
56869;DHT22;42754;0.000;0.000;2023-02-08T02:18:45;-1.70;99.90
56869;DHT22;42754;0.000;0.000;2023-02-08T02:39:50;-1.80;99.90
56869;DHT22;42754;0.000;0.000;2023-02-08T02:50:11;-1.90;99.90
56869;DHT22;42754;0.000;0.000;2023-02-08T02:52:42;-1.80;99.90
56869;DHT22;42754;0.000;0.000;2023-02-08T02:55:10;-1.90;99.90
56869;DHT22;42754;0.000;0.000;2023-02-08T02:57:39;-1.90;99.90
56869;DHT22;42754;0.000;0.000;2023-02-08T03:00:09;-2.00;99.90
56869;DHT22;42754;0.000;0.000;2023-02-08T03:02:36;-2.00;99.90
56869;DHT22;42754;0.000;0.000;2023-02-08T03:05:04;-1.90;99.90
56869;DHT22;42754;0.000;0.000;2023-02-08T03:18:30;-2.10;99.90
56869;DHT22;42754;0.000;0.000;2023-02-08T03:23:27;-2.10;99.90
56869;DHT22;42754;0.000;0.000;2023-02-08T03:26:07;-2.20;99.90
56869;DHT22;42754;0.000;0.000;2023-02-08T03:31:32;-2.10;99.90
56869;DHT22;42754;0.000;0.000;2023-02-08T03:34:05;-2.20;99.90
56869;DHT22;42754;0.000;0.000;2023-02-08T03:38:59;-2.20;99.90
56869;DHT22;42754;0.000;0.000;2023-02-08T03:41:29;-2.20;99.90
56869;DHT22;42754;0.000;0.000;2023-02-08T03:44:01;-2.20;99.90
56869;DHT22;42754;0.000;0.000;2023-02-08T03:46:29;-2.20;99.90
56869;DHT22;42754;0.000;0.000;2023-02-08T03:49:18;-2.30;99.90
56869;DHT22;42754;0.000;0.000;2023-02-08T03:51:42;-2.30;99.90
56869;DHT22;42754;0.000;0.000;2023-02-08T03:54:14;-2.30;99.90
56869;DHT22;42754;0.000;0.000;2023-02-08T03:56:44;-2.40;99.90
56869;DHT22;42754;0.000;0.000;2023-02-08T03:59:12;-2.40;99.90
56869;DHT22;42754;0.000;0.000;2023-02-08T04:01:47;-2.40;99.90
56869;DHT22;42754;0.000;0.000;2023-02-08T04:04:16;-2.40;99.90
56869;DHT22;42754;0.000;0.000;2023-02-08T04:06:43;-2.30;99.90
56869;DHT22;42754;0.000;0.000;2023-02-08T04:09:09;-2.40;99.90
56869;DHT22;42754;0.000;0.000;2023-02-08T04:11:34;-2.40;99.90
56869;DHT22;42754;0.000;0.000;2023-02-08T04:13:59;-2.40;99.90
56869;DHT22;42754;0.000;0.000;2023-02-08T04:16:25;-2.40;99.90
56869;DHT22;42754;0.000;0.000;2023-02-08T04:18:51;-2.50;99.90
56869;DHT22;42754;0.000;0.000;2023-02-08T04:21:16;-2.50;99.90
56869;DHT22;42754;0.000;0.000;2023-02-08T04:23:42;-2.50;99.90
56869;DHT22;42754;0.000;0.000;2023-02-08T04:26:07;-2.50;99.90
56869;DHT22;42754;0.000;0.000;2023-02-08T04:28:34;-2.50;99.90
56869;DHT22;42754;0.000;0.000;2023-02-08T04:30:59;-2.40;99.90
56869;DHT22;42754;0.000;0.000;2023-02-08T04:33:25;-2.50;99.90
56869;DHT22;42754;0.000;0.000;2023-02-08T04:35:50;-2.60;99.90
56869;DHT22;42754;0.000;0.000;2023-02-08T04:38:16;-2.70;99.90
56869;DHT22;42754;0.000;0.000;2023-02-08T04:40:42;-2.60;99.90
56869;DHT22;42754;0.000;0.000;2023-02-08T04:43:08;-2.60;99.90
56869;DHT22;42754;0.000;0.000;2023-02-08T04:45:33;-2.60;99.90
56869;DHT22;42754;0.000;0.000;2023-02-08T04:47:59;-2.60;99.90
56869;DHT22;42754;0.000;0.000;2023-02-08T04:50:25;-2.60;99.90
56869;DHT22;42754;0.000;0.000;2023-02-08T04:52:51;-2.50;99.90
56869;DHT22;42754;0.000;0.000;2023-02-08T04:55:17;-2.50;99.90
56869;DHT22;42754;0.000;0.000;2023-02-08T04:57:42;-2.50;99.90
56869;DHT22;42754;0.000;0.000;2023-02-08T05:00:08;-2.40;99.90
56869;DHT22;42754;0.000;0.000;2023-02-08T05:02:33;-2.40;99.90
56869;DHT22;42754;0.000;0.000;2023-02-08T05:04:59;-2.40;99.90
56869;DHT22;42754;0.000;0.000;2023-02-08T05:07:24;-2.40;99.90
56869;DHT22;42754;0.000;0.000;2023-02-08T05:09:50;-2.40;99.90
56869;DHT22;42754;0.000;0.000;2023-02-08T05:12:15;-2.40;99.90
56869;DHT22;42754;0.000;0.000;2023-02-08T05:14:41;-2.40;99.90
56869;DHT22;42754;0.000;0.000;2023-02-08T05:17:06;-2.40;99.90
56869;DHT22;42754;0.000;0.000;2023-02-08T05:19:33;-2.40;99.90
56869;DHT22;42754;0.000;0.000;2023-02-08T05:21:58;-2.40;99.90
56869;DHT22;42754;0.000;0.000;2023-02-08T05:24:24;-2.40;99.90
56869;DHT22;42754;0.000;0.000;2023-02-08T05:26:50;-2.50;99.90
56869;DHT22;42754;0.000;0.000;2023-02-08T05:29:16;-2.50;99.90
56869;DHT22;42754;0.000;0.000;2023-02-08T05:31:41;-2.40;99.90
56869;DHT22;42754;0.000;0.000;2023-02-08T05:34:07;-2.40;99.90
56869;DHT22;42754;0.000;0.000;2023-02-08T05:36:32;-2.40;99.90
56869;DHT22;42754;0.000;0.000;2023-02-08T05:38:58;-2.40;99.90
56869;DHT22;42754;0.000;0.000;2023-02-08T05:41:24;-2.30;99.90
56869;DHT22;42754;0.000;0.000;2023-02-08T05:43:49;-2.30;99.90
56869;DHT22;42754;0.000;0.000;2023-02-08T05:46:15;-2.30;99.90
56869;DHT22;42754;0.000;0.000;2023-02-08T05:48:40;-2.30;99.90
56869;DHT22;42754;0.000;0.000;2023-02-08T05:51:06;-2.30;99.90
56869;DHT22;42754;0.000;0.000;2023-02-08T05:53:31;-2.30;99.90
56869;DHT22;42754;0.000;0.000;2023-02-08T05:55:57;-2.40;99.90
56869;DHT22;42754;0.000;0.000;2023-02-08T05:58:23;-2.30;99.90
56869;DHT22;42754;0.000;0.000;2023-02-08T06:00:49;-2.40;99.90
56869;DHT22;42754;0.000;0.000;2023-02-08T06:03:15;-2.40;99.90
56869;DHT22;42754;0.000;0.000;2023-02-08T06:05:40;-2.40;99.90
56869;DHT22;42754;0.000;0.000;2023-02-08T06:08:06;-2.50;99.90
56869;DHT22;42754;0.000;0.000;2023-02-08T06:10:32;-2.40;99.90
56869;DHT22;42754;0.000;0.000;2023-02-08T06:12:58;-2.50;99.90
56869;DHT22;42754;0.000;0.000;2023-02-08T06:15:24;-2.40;99.90
56869;DHT22;42754;0.000;0.000;2023-02-08T06:17:49;-2.40;99.90
56869;DHT22;42754;0.000;0.000;2023-02-08T06:20:15;-2.50;99.90
56869;DHT22;42754;0.000;0.000;2023-02-08T06:22:41;-2.60;99.90
56869;DHT22;42754;0.000;0.000;2023-02-08T06:25:06;-2.50;99.90
56869;DHT22;42754;0.000;0.000;2023-02-08T06:27:32;-2.50;99.90
56869;DHT22;42754;0.000;0.000;2023-02-08T06:29:58;-2.50;99.90
56869;DHT22;42754;0.000;0.000;2023-02-08T06:32:23;-2.50;99.90
56869;DHT22;42754;0.000;0.000;2023-02-08T06:34:50;-2.50;99.90
56869;DHT22;42754;0.000;0.000;2023-02-08T06:37:17;-2.60;99.90
56869;DHT22;42754;0.000;0.000;2023-02-08T06:39:43;-2.60;99.90
56869;DHT22;42754;0.000;0.000;2023-02-08T06:42:10;-2.60;99.90
56869;DHT22;42754;0.000;0.000;2023-02-08T06:44:35;-2.50;99.90
56869;DHT22;42754;0.000;0.000;2023-02-08T06:47:01;-2.50;99.90
56869;DHT22;42754;0.000;0.000;2023-02-08T06:49:27;-2.60;99.90
56869;DHT22;42754;0.000;0.000;2023-02-08T06:51:53;-2.50;99.90
56869;DHT22;42754;0.000;0.000;2023-02-08T06:54:18;-2.60;99.90
56869;DHT22;42754;0.000;0.000;2023-02-08T06:56:44;-2.60;99.90
56869;DHT22;42754;0.000;0.000;2023-02-08T06:59:09;-2.60;99.90
56869;DHT22;42754;0.000;0.000;2023-02-08T07:01:35;-2.50;99.90
56869;DHT22;42754;0.000;0.000;2023-02-08T07:04:00;-2.50;99.90
56869;DHT22;42754;0.000;0.000;2023-02-08T07:06:26;-2.50;99.90
56869;DHT22;42754;0.000;0.000;2023-02-08T07:08:51;-2.50;99.90
56869;DHT22;42754;0.000;0.000;2023-02-08T07:11:18;-2.40;99.90
56869;DHT22;42754;0.000;0.000;2023-02-08T07:13:48;-2.40;99.90
56869;DHT22;42754;0.000;0.000;2023-02-08T07:16:14;-2.30;99.90
56869;DHT22;42754;0.000;0.000;2023-02-08T07:18:39;-2.30;99.90
56869;DHT22;42754;0.000;0.000;2023-02-08T07:21:05;-2.20;99.90
56869;DHT22;42754;0.000;0.000;2023-02-08T07:23:30;-2.10;99.90
56869;DHT22;42754;0.000;0.000;2023-02-08T07:25:57;-1.90;99.90
56869;DHT22;42754;0.000;0.000;2023-02-08T07:28:23;-1.20;99.90
56869;DHT22;42754;0.000;0.000;2023-02-08T07:30:48;-0.70;99.90
56869;DHT22;42754;0.000;0.000;2023-02-08T07:33:14;1.20;99.90
56869;DHT22;42754;0.000;0.000;2023-02-08T07:35:39;2.30;99.90
56869;DHT22;42754;0.000;0.000;2023-02-08T07:38:05;1.60;99.90
56869;DHT22;42754;0.000;0.000;2023-02-08T07:40:30;1.50;99.90
56869;DHT22;42754;0.000;0.000;2023-02-08T07:42:56;1.10;99.90
56869;DHT22;42754;0.000;0.000;2023-02-08T07:45:23;0.60;99.90
56869;DHT22;42754;0.000;0.000;2023-02-08T07:47:48;0.10;99.90
56869;DHT22;42754;0.000;0.000;2023-02-08T07:50:14;-0.30;99.90
56869;DHT22;42754;0.000;0.000;2023-02-08T07:52:41;-0.40;99.90
56869;DHT22;42754;0.000;0.000;2023-02-08T07:55:08;-0.30;99.90
56869;DHT22;42754;0.000;0.000;2023-02-08T07:57:35;-0.40;99.90
56869;DHT22;42754;0.000;0.000;2023-02-08T08:00:02;-0.30;99.90
56869;DHT22;42754;0.000;0.000;2023-02-08T08:02:28;-0.50;99.90
56869;DHT22;42754;0.000;0.000;2023-02-08T08:04:54;-0.60;99.90
56869;DHT22;42754;0.000;0.000;2023-02-08T08:07:19;-0.70;99.90
56869;DHT22;42754;0.000;0.000;2023-02-08T08:09:46;-0.70;99.90
56869;DHT22;42754;0.000;0.000;2023-02-08T08:12:11;-0.70;99.90
56869;DHT22;42754;0.000;0.000;2023-02-08T08:14:37;-0.30;99.90
56869;DHT22;42754;0.000;0.000;2023-02-08T08:17:02;1.00;99.90
56869;DHT22;42754;0.000;0.000;2023-02-08T08:19:28;2.40;99.90
56869;DHT22;42754;0.000;0.000;2023-02-08T08:21:53;5.20;99.90
56869;DHT22;42754;0.000;0.000;2023-02-08T08:24:20;7.80;99.90
56869;DHT22;42754;0.000;0.000;2023-02-08T08:26:45;10.50;99.90
56869;DHT22;42754;0.000;0.000;2023-02-08T08:29:11;11.30;95.70
56869;DHT22;42754;0.000;0.000;2023-02-08T08:31:37;11.30;93.40
56869;DHT22;42754;0.000;0.000;2023-02-08T08:34:03;10.70;93.00
56869;DHT22;42754;0.000;0.000;2023-02-08T08:36:29;10.40;93.20
56869;DHT22;42754;0.000;0.000;2023-02-08T08:38:55;9.70;92.20
56869;DHT22;42754;0.000;0.000;2023-02-08T08:41:21;9.10;93.90
56869;DHT22;42754;0.000;0.000;2023-02-08T08:43:47;8.30;95.00
56869;DHT22;42754;0.000;0.000;2023-02-08T08:46:14;7.70;96.40
56869;DHT22;42754;0.000;0.000;2023-02-08T08:48:40;7.50;95.50
56869;DHT22;42754;0.000;0.000;2023-02-08T08:51:08;7.00;97.50
56869;DHT22;42754;0.000;0.000;2023-02-08T08:53:44;7.10;99.40
56869;DHT22;42754;0.000;0.000;2023-02-08T08:56:16;7.10;99.30
56869;DHT22;42754;0.000;0.000;2023-02-08T08:58:49;7.30;98.30
56869;DHT22;42754;0.000;0.000;2023-02-08T09:01:20;7.50;99.90
56869;DHT22;42754;0.000;0.000;2023-02-08T09:03:52;7.70;99.70
56869;DHT22;42754;0.000;0.000;2023-02-08T09:06:18;7.70;96.40
56869;DHT22;42754;0.000;0.000;2023-02-08T09:08:45;7.80;98.10
56869;DHT22;42754;0.000;0.000;2023-02-08T09:11:15;8.00;98.40
56869;DHT22;42754;0.000;0.000;2023-02-08T09:13:41;8.20;97.30
56869;DHT22;42754;0.000;0.000;2023-02-08T09:16:11;8.00;97.10
56869;DHT22;42754;0.000;0.000;2023-02-08T09:18:37;7.80;97.20
56869;DHT22;42754;0.000;0.000;2023-02-08T09:21:22;7.70;95.00
56869;DHT22;42754;0.000;0.000;2023-02-08T09:23:53;8.00;95.50
56869;DHT22;42754;0.000;0.000;2023-02-08T09:26:20;7.50;95.60
56869;DHT22;42754;0.000;0.000;2023-02-08T09:28:46;7.50;95.30
56869;DHT22;42754;0.000;0.000;2023-02-08T09:31:19;7.10;95.20
56869;DHT22;42754;0.000;0.000;2023-02-08T09:33:46;7.30;97.40
56869;DHT22;42754;0.000;0.000;2023-02-08T09:36:12;7.40;95.70
56869;DHT22;42754;0.000;0.000;2023-02-08T09:38:39;7.80;96.80
56869;DHT22;42754;0.000;0.000;2023-02-08T09:43:42;7.70;95.50
56869;DHT22;42754;0.000;0.000;2023-02-08T09:46:14;7.50;96.00
56869;DHT22;42754;0.000;0.000;2023-02-08T09:48:45;7.30;96.00
56869;DHT22;42754;0.000;0.000;2023-02-08T09:53:56;7.10;96.90
56869;DHT22;42754;0.000;0.000;2023-02-08T09:56:28;7.00;94.90
56869;DHT22;42754;0.000;0.000;2023-02-08T09:58:55;7.00;96.00
56869;DHT22;42754;0.000;0.000;2023-02-08T10:03:56;7.00;96.60
56869;DHT22;42754;0.000;0.000;2023-02-08T10:06:27;7.20;96.50
56869;DHT22;42754;0.000;0.000;2023-02-08T10:09:02;7.40;98.10
56869;DHT22;42754;0.000;0.000;2023-02-08T10:17:33;7.20;94.90
56869;DHT22;42754;0.000;0.000;2023-02-08T10:23:20;7.10;95.90
56869;DHT22;42754;0.000;0.000;2023-02-08T10:26:17;6.80;95.90
56869;DHT22;42754;0.000;0.000;2023-02-08T10:32:05;6.90;94.40
56869;DHT22;42754;0.000;0.000;2023-02-08T10:37:43;6.70;96.50
56869;DHT22;42754;0.000;0.000;2023-02-08T10:43:25;7.00;96.30
56869;DHT22;42754;0.000;0.000;2023-02-08T10:49:01;7.30;95.70
56869;DHT22;42754;0.000;0.000;2023-02-08T10:51:57;7.70;95.30
56869;DHT22;42754;0.000;0.000;2023-02-08T10:54:41;7.70;95.20
56869;DHT22;42754;0.000;0.000;2023-02-08T10:57:20;7.80;95.00
56869;DHT22;42754;0.000;0.000;2023-02-08T11:00:05;8.10;93.10
56869;DHT22;42754;0.000;0.000;2023-02-08T11:06:24;7.90;93.60
56869;DHT22;42754;0.000;0.000;2023-02-08T11:09:30;7.50;92.40
56869;DHT22;42754;0.000;0.000;2023-02-08T11:12:14;7.60;94.00
56869;DHT22;42754;0.000;0.000;2023-02-08T11:14:57;7.70;90.90
56869;DHT22;42754;0.000;0.000;2023-02-08T11:17:32;8.00;93.20
56869;DHT22;42754;0.000;0.000;2023-02-08T11:20:18;7.80;90.90
56869;DHT22;42754;0.000;0.000;2023-02-08T11:22:50;8.00;91.70
56869;DHT22;42754;0.000;0.000;2023-02-08T11:25:33;8.20;93.10
56869;DHT22;42754;0.000;0.000;2023-02-08T11:28:03;8.20;93.10
56869;DHT22;42754;0.000;0.000;2023-02-08T11:30:32;8.10;92.70
56869;DHT22;42754;0.000;0.000;2023-02-08T11:33:35;8.10;90.90
56869;DHT22;42754;0.000;0.000;2023-02-08T11:36:01;8.20;92.00
56869;DHT22;42754;0.000;0.000;2023-02-08T11:38:30;8.20;90.30
56869;DHT22;42754;0.000;0.000;2023-02-08T11:41:00;8.10;91.30
56869;DHT22;42754;0.000;0.000;2023-02-08T11:43:28;8.10;90.60
56869;DHT22;42754;0.000;0.000;2023-02-08T11:45:55;8.20;90.70
56869;DHT22;42754;0.000;0.000;2023-02-08T11:48:22;8.20;91.00
56869;DHT22;42754;0.000;0.000;2023-02-08T11:50:53;8.40;92.50
56869;DHT22;42754;0.000;0.000;2023-02-08T11:53:20;8.30;89.30
56869;DHT22;42754;0.000;0.000;2023-02-08T11:56:09;8.30;89.50
56869;DHT22;42754;0.000;0.000;2023-02-08T11:58:39;8.40;92.20
56869;DHT22;42754;0.000;0.000;2023-02-08T12:01:15;8.70;90.80
56869;DHT22;42754;0.000;0.000;2023-02-08T12:03:41;9.00;90.50
56869;DHT22;42754;0.000;0.000;2023-02-08T12:06:19;9.10;86.90
56869;DHT22;42754;0.000;0.000;2023-02-08T12:37:50;9.50;77.60
56869;DHT22;42754;0.000;0.000;2023-02-08T12:40:49;9.50;80.20
56869;DHT22;42754;0.000;0.000;2023-02-08T12:48:39;9.50;73.90
56869;DHT22;42754;0.000;0.000;2023-02-08T12:53:36;10.00;78.40
56869;DHT22;42754;0.000;0.000;2023-02-08T12:56:06;9.90;74.70
56869;DHT22;42754;0.000;0.000;2023-02-08T12:58:40;9.90;75.60
56869;DHT22;42754;0.000;0.000;2023-02-08T13:01:13;9.90;71.90
56869;DHT22;42754;0.000;0.000;2023-02-08T13:03:42;9.80;78.30
56869;DHT22;42754;0.000;0.000;2023-02-08T13:06:17;9.60;75.00
56869;DHT22;42754;0.000;0.000;2023-02-08T13:11:33;9.80;80.20
56869;DHT22;42754;0.000;0.000;2023-02-08T13:14:02;9.70;74.80
56869;DHT22;42754;0.000;0.000;2023-02-08T13:16:40;9.60;75.30
56869;DHT22;42754;0.000;0.000;2023-02-08T13:19:20;9.60;77.30
56869;DHT22;42754;0.000;0.000;2023-02-08T13:21:46;9.70;72.80
56869;DHT22;42754;0.000;0.000;2023-02-08T13:24:35;9.50;77.40
56869;DHT22;42754;0.000;0.000;2023-02-08T13:26:59;9.60;75.60
56869;DHT22;42754;0.000;0.000;2023-02-08T13:29:24;9.50;76.60
56869;DHT22;42754;0.000;0.000;2023-02-08T13:32:10;9.50;71.90
56869;DHT22;42754;0.000;0.000;2023-02-08T13:34:40;9.30;78.00
56869;DHT22;42754;0.000;0.000;2023-02-08T13:37:22;9.30;72.70
56869;DHT22;42754;0.000;0.000;2023-02-08T13:39:50;9.30;75.80
56869;DHT22;42754;0.000;0.000;2023-02-08T13:42:29;9.20;69.40
56869;DHT22;42754;0.000;0.000;2023-02-08T13:44:58;9.20;71.60
56869;DHT22;42754;0.000;0.000;2023-02-08T13:47:32;9.10;68.80
56869;DHT22;42754;0.000;0.000;2023-02-08T13:49:59;9.10;72.70
56869;DHT22;42754;0.000;0.000;2023-02-08T13:57:50;8.90;71.30
56869;DHT22;42754;0.000;0.000;2023-02-08T14:05:46;8.50;70.30
56869;DHT22;42754;0.000;0.000;2023-02-08T14:08:18;8.60;73.90
56869;DHT22;42754;0.000;0.000;2023-02-08T14:10:50;8.50;70.00
56869;DHT22;42754;0.000;0.000;2023-02-08T14:15:44;8.20;71.40
56869;DHT22;42754;0.000;0.000;2023-02-08T14:18:23;8.00;74.70
56869;DHT22;42754;0.000;0.000;2023-02-08T14:23:43;7.80;75.00
56869;DHT22;42754;0.000;0.000;2023-02-08T14:26:09;7.60;70.90
56869;DHT22;42754;0.000;0.000;2023-02-08T14:28:43;7.60;73.30
56869;DHT22;42754;0.000;0.000;2023-02-08T14:31:14;7.60;74.40
56869;DHT22;42754;0.000;0.000;2023-02-08T14:33:41;7.50;71.10
56869;DHT22;42754;0.000;0.000;2023-02-08T14:36:40;7.40;72.10
56869;DHT22;42754;0.000;0.000;2023-02-08T14:41:48;7.20;74.30
56869;DHT22;42754;0.000;0.000;2023-02-08T14:46:59;7.20;71.00
56869;DHT22;42754;0.000;0.000;2023-02-08T14:49:25;7.10;74.60
56869;DHT22;42754;0.000;0.000;2023-02-08T14:52:02;7.00;76.90
56869;DHT22;42754;0.000;0.000;2023-02-08T14:56:57;6.90;76.50
56869;DHT22;42754;0.000;0.000;2023-02-08T14:59:27;7.00;78.10
56869;DHT22;42754;0.000;0.000;2023-02-08T15:01:55;6.90;76.90
56869;DHT22;42754;0.000;0.000;2023-02-08T15:04:22;6.70;80.50
56869;DHT22;42754;0.000;0.000;2023-02-08T15:09:35;6.70;78.80
56869;DHT22;42754;0.000;0.000;2023-02-08T15:12:24;6.70;83.40
56869;DHT22;42754;0.000;0.000;2023-02-08T15:14:47;6.70;80.50
56869;DHT22;42754;0.000;0.000;2023-02-08T15:19:47;6.50;82.50
56869;DHT22;42754;0.000;0.000;2023-02-08T15:24:55;6.40;81.70
56869;DHT22;42754;0.000;0.000;2023-02-08T15:27:22;6.40;84.80
56869;DHT22;42754;0.000;0.000;2023-02-08T15:29:48;6.30;86.40
56869;DHT22;42754;0.000;0.000;2023-02-08T15:32:15;6.30;87.90
56869;DHT22;42754;0.000;0.000;2023-02-08T15:34:45;6.20;88.30
56869;DHT22;42754;0.000;0.000;2023-02-08T15:37:15;6.10;88.10
56869;DHT22;42754;0.000;0.000;2023-02-08T15:39:41;6.20;91.10
56869;DHT22;42754;0.000;0.000;2023-02-08T15:42:15;6.10;91.50
56869;DHT22;42754;0.000;0.000;2023-02-08T15:44:42;6.00;91.80
56869;DHT22;42754;0.000;0.000;2023-02-08T15:47:11;5.90;91.10
56869;DHT22;42754;0.000;0.000;2023-02-08T15:49:40;6.00;90.90
56869;DHT22;42754;0.000;0.000;2023-02-08T15:52:06;5.90;91.70
56869;DHT22;42754;0.000;0.000;2023-02-08T15:54:32;5.90;91.80
56869;DHT22;42754;0.000;0.000;2023-02-08T15:57:06;5.80;92.40
56869;DHT22;42754;0.000;0.000;2023-02-08T15:59:33;5.80;92.30
56869;DHT22;42754;0.000;0.000;2023-02-08T16:02:22;5.70;92.40
56869;DHT22;42754;0.000;0.000;2023-02-08T16:04:46;5.50;92.50
56869;DHT22;42754;0.000;0.000;2023-02-08T16:07:18;5.50;93.30
56869;DHT22;42754;0.000;0.000;2023-02-08T16:09:46;5.50;93.50
56869;DHT22;42754;0.000;0.000;2023-02-08T16:12:15;5.40;93.60
56869;DHT22;42754;0.000;0.000;2023-02-08T16:14:43;5.30;93.70
56869;DHT22;42754;0.000;0.000;2023-02-08T16:17:25;5.20;94.70
56869;DHT22;42754;0.000;0.000;2023-02-08T16:19:53;5.30;94.90
56869;DHT22;42754;0.000;0.000;2023-02-08T16:22:24;5.30;95.10
56869;DHT22;42754;0.000;0.000;2023-02-08T16:24:52;5.20;95.80
56869;DHT22;42754;0.000;0.000;2023-02-08T16:27:24;5.10;95.70
56869;DHT22;42754;0.000;0.000;2023-02-08T16:29:50;5.10;95.50
56869;DHT22;42754;0.000;0.000;2023-02-08T16:32:30;5.10;94.60
56869;DHT22;42754;0.000;0.000;2023-02-08T16:34:56;4.90;95.00
56869;DHT22;42754;0.000;0.000;2023-02-08T16:44:59;4.70;97.60
56869;DHT22;42754;0.000;0.000;2023-02-08T16:47:26;4.60;98.30
56869;DHT22;42754;0.000;0.000;2023-02-08T16:49:52;4.60;97.80
56869;DHT22;42754;0.000;0.000;2023-02-08T16:52:17;4.50;98.30
56869;DHT22;42754;0.000;0.000;2023-02-08T16:54:43;4.40;99.10
56869;DHT22;42754;0.000;0.000;2023-02-08T16:57:08;4.30;99.30
56869;DHT22;42754;0.000;0.000;2023-02-08T16:59:35;4.10;99.80
56869;DHT22;42754;0.000;0.000;2023-02-08T17:02:01;4.00;99.90
56869;DHT22;42754;0.000;0.000;2023-02-08T17:04:26;4.00;99.90
56869;DHT22;42754;0.000;0.000;2023-02-08T17:06:52;3.90;99.90
56869;DHT22;42754;0.000;0.000;2023-02-08T17:09:18;3.80;99.90
56869;DHT22;42754;0.000;0.000;2023-02-08T17:11:43;3.90;99.90
56869;DHT22;42754;0.000;0.000;2023-02-08T17:14:09;3.70;99.90
56869;DHT22;42754;0.000;0.000;2023-02-08T17:16:35;3.60;99.90
56869;DHT22;42754;0.000;0.000;2023-02-08T17:19:01;3.60;99.90
56869;DHT22;42754;0.000;0.000;2023-02-08T17:21:27;3.60;99.90
56869;DHT22;42754;0.000;0.000;2023-02-08T17:23:55;3.60;99.90
56869;DHT22;42754;0.000;0.000;2023-02-08T17:28:52;3.40;99.90
56869;DHT22;42754;0.000;0.000;2023-02-08T17:31:17;3.40;99.90
56869;DHT22;42754;0.000;0.000;2023-02-08T17:33:43;3.30;99.90
56869;DHT22;42754;0.000;0.000;2023-02-08T17:36:10;3.30;99.90
56869;DHT22;42754;0.000;0.000;2023-02-08T17:38:36;3.20;99.90
56869;DHT22;42754;0.000;0.000;2023-02-08T17:41:04;3.20;99.90
56869;DHT22;42754;0.000;0.000;2023-02-08T17:43:30;3.10;99.90
56869;DHT22;42754;0.000;0.000;2023-02-08T17:45:55;3.00;99.90
56869;DHT22;42754;0.000;0.000;2023-02-08T17:48:21;2.90;99.90
56869;DHT22;42754;0.000;0.000;2023-02-08T17:50:46;2.80;99.90
56869;DHT22;42754;0.000;0.000;2023-02-08T17:53:19;2.70;99.90
56869;DHT22;42754;0.000;0.000;2023-02-08T17:55:45;2.70;99.90
56869;DHT22;42754;0.000;0.000;2023-02-08T17:58:11;2.60;99.90
56869;DHT22;42754;0.000;0.000;2023-02-08T18:00:37;2.60;99.90
56869;DHT22;42754;0.000;0.000;2023-02-08T18:03:03;2.50;99.90
56869;DHT22;42754;0.000;0.000;2023-02-08T18:05:28;2.50;99.90
56869;DHT22;42754;0.000;0.000;2023-02-08T18:07:55;2.40;99.90
56869;DHT22;42754;0.000;0.000;2023-02-08T18:10:21;2.40;99.90
56869;DHT22;42754;0.000;0.000;2023-02-08T18:12:46;2.30;99.90
56869;DHT22;42754;0.000;0.000;2023-02-08T18:15:13;2.30;99.90
56869;DHT22;42754;0.000;0.000;2023-02-08T18:17:39;2.30;99.90
56869;DHT22;42754;0.000;0.000;2023-02-08T18:20:05;2.30;99.90
56869;DHT22;42754;0.000;0.000;2023-02-08T18:22:33;2.20;99.90
56869;DHT22;42754;0.000;0.000;2023-02-08T18:24:59;2.20;99.90
56869;DHT22;42754;0.000;0.000;2023-02-08T18:27:24;2.20;99.90
56869;DHT22;42754;0.000;0.000;2023-02-08T18:29:51;2.20;99.90
56869;DHT22;42754;0.000;0.000;2023-02-08T18:32:17;2.10;99.90
56869;DHT22;42754;0.000;0.000;2023-02-08T18:34:44;2.10;99.90
56869;DHT22;42754;0.000;0.000;2023-02-08T18:37:10;2.00;99.90
56869;DHT22;42754;0.000;0.000;2023-02-08T18:39:35;2.00;99.90
56869;DHT22;42754;0.000;0.000;2023-02-08T18:42:01;2.00;99.90
56869;DHT22;42754;0.000;0.000;2023-02-08T18:44:28;1.90;99.90
56869;DHT22;42754;0.000;0.000;2023-02-08T18:46:54;1.90;99.90